Time;durP1;ratioP1;P1;durP2;ratioP2;P2;SDS_P1;SDS_P2;PMS_P1;PMS_P2;Temp;Humidity;BMP_temperature;BMP_pressure;BME280_temperature;BME280_humidity;BME280_pressure;Samples;Min_cycle;Max_cycle;Signal;HPM_P1;HPM_P2
2021/05/17 00:01:07;;;;;;;;;;;;;;;18.23;52.42;98438.06;3454204;28;19991;-42
2021/05/17 00:02:48;;;;;;;;;;;;;;;18.22;52.76;98439.00;3455659;28;20429;-47
2021/05/17 00:04:32;;;;;;;;;;;;;;;18.19;52.60;98433.84;3454721;28;20406;-47
2021/05/17 00:06:13;;;;;;;;;;;;;;;18.18;52.46;98429.50;3454823;28;19929;-46
2021/05/17 00:07:55;;;;;;;;;;;;;;;18.16;52.24;98426.09;3455388;28;19976;-42
2021/05/17 00:09:36;;;;;;;;;;;;;;;18.15;52.48;98428.75;3454521;28;20310;-42
2021/05/17 00:11:18;;;;;;;;;;;;;;;18.14;54.89;98427.91;3455519;28;19936;-47
2021/05/17 00:12:59;;;;;;;;;;;;;;;18.09;55.13;98421.97;3454304;28;19930;-42
2021/05/17 00:14:41;;;;;;;;;;;;;;;18.07;55.65;98418.56;3455519;28;19936;-42
2021/05/17 00:16:22;;;;;;;;;;;;;;;18.03;56.79;98423.06;3447127;28;19937;-42
2021/05/17 00:18:04;;;;;;;;;;;;;;;17.99;57.28;98418.81;3454954;28;19965;-42
2021/05/17 00:19:45;;;;;;;;;;;;;;;17.96;58.38;98421.59;3454681;28;19977;-42
2021/05/17 00:21:27;;;;;;;;;;;;;;;17.94;58.94;98423.41;3455686;28;24126;-42
2021/05/17 00:23:08;;;;;;;;;;;;;;;17.89;57.48;98420.09;3455202;28;19929;-42
2021/05/17 00:24:49;;;;;;;;;;;;;;;17.83;57.75;98423.78;3454103;28;20409;-42
2021/05/17 00:26:31;;;;;;;;;;;;;;;17.77;57.32;98418.72;3455326;28;19976;-42
2021/05/17 00:28:13;;;;;;;;;;;;;;;17.73;55.87;98411.00;3454133;28;19976;-42
2021/05/17 00:29:55;;;;;;;;;;;;;;;17.70;56.30;98411.13;3454872;28;19936;-42
2021/05/17 00:31:36;;;;;;;;;;;;;;;17.66;56.41;98416.50;3454818;28;19941;-42
2021/05/17 00:33:18;;;;;;;;;;;;;;;17.63;55.45;98406.09;3455581;28;20306;-42
2021/05/17 00:34:59;;;;;;;;;;;;;;;17.62;55.94;98409.66;3455132;28;19929;-42
2021/05/17 00:36:41;;;;;;;;;;;;;;;17.60;56.13;98400.94;3455272;28;20366;-42
2021/05/17 00:38:22;;;;;;;;;;;;;;;17.58;55.79;98402.78;3455221;28;19995;-42
2021/05/17 00:40:04;;;;;;;;;;;;;;;17.58;56.02;98401.94;3455247;28;19929;-42
2021/05/17 00:41:45;;;;;;;;;;;;;;;17.57;56.42;98414.19;3454614;28;20528;-41
2021/05/17 00:43:31;;;;;;;;;;;;;;;17.56;57.03;98424.72;3454604;28;19937;-42
2021/05/17 00:45:13;;;;;;;;;;;;;;;17.54;58.05;98416.91;3454343;28;19930;-42
2021/05/17 00:46:55;;;;;;;;;;;;;;;17.50;55.96;98415.31;3454979;28;19992;-42
2021/05/17 00:48:37;;;;;;;;;;;;;;;17.44;55.73;98407.66;3456091;28;20314;-46
2021/05/17 00:50:20;;;;;;;;;;;;;;;17.40;57.07;98403.44;3457596;28;19949;-47
2021/05/17 00:52:02;;;;;;;;;;;;;;;17.36;56.84;98405.31;3456694;28;19929;-46
2021/05/17 00:53:43;;;;;;;;;;;;;;;17.37;56.27;98406.16;3457299;28;19977;-46
2021/05/17 00:55:26;;;;;;;;;;;;;;;17.37;56.81;98414.88;3456892;28;20372;-42
2021/05/17 00:57:08;;;;;;;;;;;;;;;17.37;57.77;98417.50;3458000;28;19937;-47
2021/05/17 00:58:50;;;;;;;;;;;;;;;17.38;58.75;98413.97;3457182;28;19988;-47
2021/05/17 01:00:31;;;;;;;;;;;;;;;17.38;59.23;98413.97;3456490;28;20040;-46
2021/05/17 01:02:13;;;;;;;;;;;;;;;17.37;58.05;98406.16;3457257;28;20415;-49
2021/05/17 01:03:54;;;;;;;;;;;;;;;17.36;57.39;98404.44;3456185;28;20414;-47
2021/05/17 01:05:35;;;;;;;;;;;;;;;17.35;58.39;98393.09;3458096;28;19940;-47
2021/05/17 01:07:18;;;;;;;;;;;;;;;17.33;58.51;98386.22;3456782;28;19976;-48
2021/05/17 01:09:03;;;;;;;;;;;;;;;17.32;59.58;98379.25;3456031;28;20361;-46
2021/05/17 01:10:44;;;;;;;;;;;;;;;17.30;60.98;98374.88;3457128;28;19929;-46
2021/05/17 01:12:26;;;;;;;;;;;;;;;17.29;61.52;98369.72;3456283;28;20116;-47
2021/05/17 01:14:08;;;;;;;;;;;;;;;17.27;62.33;98372.41;3455884;28;19972;-47
2021/05/17 01:15:50;;;;;;;;;;;;;;;17.26;63.41;98373.28;3455870;28;20299;-51
2021/05/17 01:17:32;;;;;;;;;;;;;;;17.24;63.90;98379.50;3456527;28;19995;-47
2021/05/17 01:19:15;;;;;;;;;;;;;;;17.21;63.76;98380.47;3456668;28;19965;-46
2021/05/17 01:20:57;;;;;;;;;;;;;;;17.18;63.54;98377.09;3456250;28;19969;-46
2021/05/17 01:22:48;;;;;;;;;;;;;;;17.15;63.42;98374.56;3456900;28;20021;-47
2021/05/17 01:24:31;;;;;;;;;;;;;;;17.14;64.55;98389.44;3457330;28;20038;-47
2021/05/17 01:26:13;;;;;;;;;;;;;;;17.10;63.40;98404.41;3456686;28;19965;-46
2021/05/17 01:27:55;;;;;;;;;;;;;;;17.05;62.19;98414.19;3456416;28;19929;-46
2021/05/17 01:29:36;;;;;;;;;;;;;;;17.02;63.29;98414.28;3456332;28;19984;-48
2021/05/17 01:31:17;;;;;;;;;;;;;;;16.96;60.72;98403.16;3455841;28;19976;-47
2021/05/17 01:32:59;;;;;;;;;;;;;;;16.96;61.23;98405.78;3454055;28;19929;-46
2021/05/17 01:34:40;;;;;;;;;;;;;;;16.95;59.85;98412.75;3443664;28;20406;-42
2021/05/17 01:36:22;;;;;;;;;;;;;;;16.96;60.70;98413.63;3456866;28;19972;-42
2021/05/17 01:38:03;;;;;;;;;;;;;;;16.96;62.13;98409.25;3457562;28;19933;-51
2021/05/17 01:39:46;;;;;;;;;;;;;;;16.96;62.75;98413.63;3456632;28;19977;-48
2021/05/17 01:41:27;;;;;;;;;;;;;;;16.94;62.95;98418.94;3457538;28;19929;-48
2021/05/17 01:43:10;;;;;;;;;;;;;;;16.94;62.63;98418.09;3456584;28;19936;-47
2021/05/17 01:44:53;;;;;;;;;;;;;;;16.92;63.77;98408.50;3455391;28;20096;-48
2021/05/17 01:46:34;;;;;;;;;;;;;;;16.92;64.16;98411.13;3457050;28;19929;-47
2021/05/17 01:48:22;;;;;;;;;;;;;;;16.92;64.31;98405.03;3455612;28;19934;-46
2021/05/17 01:50:04;;;;;;;;;;;;;;;16.91;63.69;98409.38;3456240;28;20410;-47
2021/05/17 01:51:48;;;;;;;;;;;;;;;16.89;63.73;98408.59;3456120;28;19934;-46
2021/05/17 01:53:31;;;;;;;;;;;;;;;16.85;66.37;98419.22;3456956;28;20307;-46
2021/05/17 01:55:13;;;;;;;;;;;;;;;16.77;67.11;98419.47;3456815;28;19936;-47
2021/05/17 01:56:55;;;;;;;;;;;;;;;16.71;68.49;98425.72;3455455;28;20310;-49
2021/05/17 01:58:37;;;;;;;;;;;;;;;16.65;69.18;98425.03;3457022;28;19969;-43
2021/05/17 02:00:19;;;;;;;;;;;;;;;16.60;69.54;98433.06;3455743;28;19984;-43
2021/05/17 02:02:00;;;;;;;;;;;;;;;16.55;69.03;98425.34;3457079;28;19929;-44
2021/05/17 02:03:42;;;;;;;;;;;;;;;16.54;68.77;98430.63;3456264;28;20415;-44
2021/05/17 02:05:23;;;;;;;;;;;;;;;16.52;69.04;98429.81;3455619;28;20005;-44
2021/05/17 02:07:05;;;;;;;;;;;;;;;16.51;69.64;98428.97;3456518;28;19929;-45
2021/05/17 02:08:48;;;;;;;;;;;;;;;16.51;69.91;98425.47;3457288;28;19930;-46
2021/05/17 02:10:30;;;;;;;;;;;;;;;16.49;70.30;98420.28;3456856;28;19929;-46
2021/05/17 02:12:13;;;;;;;;;;;;;;;16.48;71.11;98421.19;3455361;28;19929;-43
2021/05/17 02:13:54;;;;;;;;;;;;;;;16.49;72.25;98419.41;3454293;28;19933;-43
2021/05/17 02:15:36;;;;;;;;;;;;;;;16.46;73.36;98419.50;3456350;28;19969;-44
2021/05/17 02:17:17;;;;;;;;;;;;;;;16.40;73.99;98409.25;3455631;28;19969;-44
2021/05/17 02:18:58;;;;;;;;;;;;;;;16.31;75.09;98410.38;3456591;28;19949;-44
2021/05/17 02:20:41;;;;;;;;;;;;;;;16.22;75.47;98418.50;3455272;28;20395;-44
2021/05/17 02:22:23;;;;;;;;;;;;;;;16.13;76.64;98412.63;3456556;28;20406;-46
2021/05/17 02:24:08;;;;;;;;;;;;;;;16.09;77.24;98415.41;3455705;28;19973;-46
2021/05/17 02:25:50;;;;;;;;;;;;;;;16.01;76.16;98394.66;3455845;28;20315;-46
2021/05/17 02:27:32;;;;;;;;;;;;;;;15.90;74.67;98381.91;3456181;28;19937;-47
2021/05/17 02:29:13;;;;;;;;;;;;;;;15.79;76.82;98366.53;3455245;28;19929;-47
2021/05/17 02:30:55;;;;;;;;;;;;;;;15.72;78.02;98364.13;3442811;28;19977;-47
2021/05/17 02:32:36;;;;;;;;;;;;;;;15.66;78.64;98361.69;3451976;28;19983;-44
2021/05/17 02:34:17;;;;;;;;;;;;;;;15.59;76.54;98360.97;3456556;28;19980;-46
2021/05/17 02:35:59;;;;;;;;;;;;;;;15.55;79.04;98364.56;3456522;28;20020;-47
2021/05/17 02:37:40;;;;;;;;;;;;;;;15.50;79.17;98353.38;3456929;28;19983;-46
2021/05/17 02:39:21;;;;;;;;;;;;;;;15.47;79.25;98354.31;3456024;28;19961;-47
2021/05/17 02:41:04;;;;;;;;;;;;;;;15.44;79.62;98361.41;3454917;28;19977;-46
2021/05/17 02:42:46;;;;;;;;;;;;;;;15.37;79.57;98350.25;3456296;28;20426;-46
2021/05/17 02:44:28;;;;;;;;;;;;;;;15.32;79.36;98342.53;3455407;28;19968;-44
2021/05/17 02:46:09;;;;;;;;;;;;;;;15.28;79.25;98343.50;3456137;28;20396;-44
2021/05/17 02:47:51;;;;;;;;;;;;;;;15.24;79.92;98336.63;3456258;28;19930;-45
2021/05/17 02:49:34;;;;;;;;;;;;;;;15.22;80.05;98334.09;3456905;28;19929;-44
2021/05/17 02:51:16;;;;;;;;;;;;;;;15.21;80.28;98345.41;3455814;28;19934;-44
2021/05/17 02:52:57;;;;;;;;;;;;;;;15.22;80.67;98341.03;3455184;28;19976;-43
2021/05/17 02:54:39;;;;;;;;;;;;;;;15.22;80.81;98341.03;3442911;28;19988;-47
2021/05/17 02:56:31;;;;;;;;;;;;;;;15.26;80.92;98341.81;3453038;28;20402;-46
2021/05/17 02:58:14;;;;;;;;;;;;;;;15.28;80.70;98348.75;3455938;28;19929;-43
2021/05/17 03:00:07;;;;;;;;;;;;;;;15.30;80.76;98349.53;3455012;28;19930;-46
2021/05/17 03:01:49;;;;;;;;;;;;;;;15.33;80.76;98351.22;3455206;28;20422;-43
2021/05/17 03:03:34;;;;;;;;;;;;;;;15.34;81.22;98351.16;3456311;28;19937;-46
2021/05/17 03:05:16;;;;;;;;;;;;;;;15.33;81.73;98346.88;3455181;28;20289;-46
2021/05/17 03:07:02;;;;;;;;;;;;;;;15.32;81.97;98344.28;3455954;28;19976;-47
2021/05/17 03:08:49;;;;;;;;;;;;;;;15.31;82.06;98342.56;3454989;28;20299;-43
2021/05/17 03:10:32;;;;;;;;;;;;;;;15.30;82.30;98343.47;3455347;28;19929;-44
2021/05/17 03:12:14;;;;;;;;;;;;;;;15.27;82.65;98340.94;3455621;28;19977;-43
2021/05/17 03:13:56;;;;;;;;;;;;;;;15.28;83.01;98342.66;3454032;28;19930;-43
2021/05/17 03:15:38;;;;;;;;;;;;;;;15.26;83.30;98342.69;3455978;28;20004;-43
2021/05/17 03:17:19;;;;;;;;;;;;;;;15.23;83.31;98332.31;3454853;28;19937;-46
2021/05/17 03:19:01;;;;;;;;;;;;;;;15.20;83.22;98335.00;3455436;28;19929;-48
2021/05/17 03:20:42;;;;;;;;;;;;;;;15.18;83.15;98335.03;3455661;28;20095;-43
2021/05/17 03:22:24;;;;;;;;;;;;;;;15.17;83.39;98330.75;3455089;28;19940;-43
2021/05/17 03:24:06;;;;;;;;;;;;;;;15.16;83.62;98320.31;3455677;28;19992;-43
2021/05/17 03:25:48;;;;;;;;;;;;;;;15.11;83.66;98315.22;3456073;28;19929;-43
2021/05/17 03:27:30;;;;;;;;;;;;;;;15.06;83.87;98311.88;3456284;28;19984;-43
2021/05/17 03:29:12;;;;;;;;;;;;;;;15.03;84.46;98309.34;3455051;28;19983;-43
2021/05/17 03:30:53;;;;;;;;;;;;;;;14.98;84.85;98303.41;3455047;28;20535;-43
2021/05/17 03:32:34;;;;;;;;;;;;;;;14.93;85.01;98295.66;3455443;28;20421;-43
2021/05/17 03:34:16;;;;;;;;;;;;;;;14.91;85.68;98286.19;3456423;28;19980;-46
2021/05/17 03:35:57;;;;;;;;;;;;;;;14.88;86.01;98276.66;3455486;28;20342;-46
2021/05/17 03:37:38;;;;;;;;;;;;;;;14.90;85.99;98268.78;3455606;28;20034;-46
2021/05/17 03:39:19;;;;;;;;;;;;;;;14.89;86.00;98260.09;3456042;28;19965;-43
2021/05/17 03:41:00;;;;;;;;;;;;;;;14.89;86.56;98259.22;3454345;28;19999;-43
2021/05/17 03:42:42;;;;;;;;;;;;;;;14.89;86.29;98236.59;3455499;28;20414;-46
2021/05/17 03:44:23;;;;;;;;;;;;;;;14.92;85.57;98235.66;3454994;28;19940;-46
2021/05/17 03:46:04;;;;;;;;;;;;;;;14.93;84.92;98233.00;3454728;28;20028;-47
2021/05/17 03:47:45;;;;;;;;;;;;;;;14.96;84.56;98240.75;3455850;28;19929;-43
2021/05/17 03:49:26;;;;;;;;;;;;;;;14.99;84.37;98231.97;3455868;28;19930;-43
2021/05/17 03:51:08;;;;;;;;;;;;;;;15.03;83.54;98242.31;3455487;28;19936;-43
2021/05/17 03:52:49;;;;;;;;;;;;;;;15.07;83.82;98239.63;3456215;28;19936;-47
2021/05/17 03:54:30;;;;;;;;;;;;;;;15.10;83.29;98239.50;3456336;28;19964;-48
2021/05/17 03:56:11;;;;;;;;;;;;;;;15.12;83.23;98241.19;3455918;28;19930;-46
2021/05/17 03:57:55;;;;;;;;;;;;;;;15.14;83.14;98243.75;3456105;28;19972;-43
2021/05/17 03:59:37;;;;;;;;;;;;;;;15.15;83.25;98241.13;3455412;28;20398;-48
2021/05/17 04:01:18;;;;;;;;;;;;;;;15.15;82.68;98233.28;3454585;28;20387;-48
2021/05/17 04:03:01;;;;;;;;;;;;;;;15.16;82.57;98237.59;3455881;28;19933;-44
2021/05/17 04:04:49;;;;;;;;;;;;;;;15.18;82.32;98235.78;3454935;28;20422;-50
2021/05/17 04:06:38;;;;;;;;;;;;;;;15.20;82.33;98233.97;3455457;28;19936;-44
2021/05/17 04:14:28;;;;;;;;;;;;;;;15.27;83.47;98234.66;3452692;28;19965;-45
2021/05/17 04:16:10;;;;;;;;;;;;;;;15.28;82.96;98225.94;3455411;28;19972;-44
2021/05/17 04:17:51;;;;;;;;;;;;;;;15.31;82.27;98235.44;3455532;28;19930;-44
2021/05/17 04:19:32;;;;;;;;;;;;;;;15.34;82.24;98240.56;3454555;28;19940;-48
2021/05/17 04:21:13;;;;;;;;;;;;;;;15.38;81.98;98231.75;3455049;28;20387;-52
2021/05/17 04:22:54;;;;;;;;;;;;;;;15.41;81.68;98229.91;3454601;28;19936;-48
2021/05/17 04:24:35;;;;;;;;;;;;;;;15.47;81.64;98218.44;3457238;28;19934;-49
2021/05/17 04:26:17;;;;;;;;;;;;;;;15.52;81.25;98220.88;3457402;28;19936;-47
2021/05/17 04:27:58;;;;;;;;;;;;;;;15.57;81.18;98221.59;3456704;28;19984;-48
2021/05/17 04:29:40;;;;;;;;;;;;;;;15.62;81.06;98232.81;3457961;28;19933;-48
2021/05/17 04:31:21;;;;;;;;;;;;;;;15.67;81.44;98228.31;3456438;28;20376;-48
2021/05/17 04:33:02;;;;;;;;;;;;;;;15.72;81.07;98229.03;3457600;28;19988;-48
2021/05/17 04:34:43;;;;;;;;;;;;;;;15.77;80.89;98227.13;3457313;28;20335;-48
2021/05/17 04:36:24;;;;;;;;;;;;;;;15.84;80.30;98234.78;3456764;28;19933;-49
2021/05/17 04:38:05;;;;;;;;;;;;;;;15.89;80.15;98235.50;3457310;28;19965;-47
2021/05/17 04:39:46;;;;;;;;;;;;;;;15.94;80.30;98236.22;3456513;28;19936;-47
2021/05/17 04:41:28;;;;;;;;;;;;;;;15.98;79.74;98245.66;3457998;28;19930;-43
2021/05/17 04:43:09;;;;;;;;;;;;;;;16.01;79.90;98242.97;3456268;28;19930;-42
2021/05/17 04:44:51;;;;;;;;;;;;;;;16.05;79.89;98255.03;3457431;28;20402;-42
2021/05/17 04:46:32;;;;;;;;;;;;;;;16.08;80.04;98261.94;3455794;28;19964;-42
2021/05/17 04:48:14;;;;;;;;;;;;;;;16.07;78.25;98255.84;3457943;28;19929;-42
2021/05/17 04:49:55;;;;;;;;;;;;;;;16.07;79.55;98263.72;3457425;28;20395;-42
2021/05/17 04:51:36;;;;;;;;;;;;;;;16.06;79.57;98269.81;3456263;28;19933;-42
2021/05/17 04:53:17;;;;;;;;;;;;;;;16.09;79.64;98274.97;3457805;28;19929;-42
2021/05/17 04:54:59;;;;;;;;;;;;;;;16.08;79.46;98268.00;3456318;28;19930;-47
2021/05/17 04:56:40;;;;;;;;;;;;;;;16.11;80.66;98267.09;3456814;28;19975;-48
2021/05/17 04:58:21;;;;;;;;;;;;;;;16.12;80.88;98263.53;3456785;28;19936;-47
2021/05/17 05:00:04;;;;;;;;;;;;;;;16.13;80.14;98260.88;3457752;28;19937;-47
2021/05/17 05:01:45;;;;;;;;;;;;;;;16.12;79.19;98264.41;3457559;28;19976;-42
2021/05/17 05:03:26;;;;;;;;;;;;;;;16.09;79.57;98254.03;3456152;28;19980;-42
2021/05/17 05:05:08;;;;;;;;;;;;;;;16.11;80.41;98256.63;3457567;28;19965;-42
2021/05/17 05:06:49;;;;;;;;;;;;;;;16.12;80.86;98260.94;3456165;28;19929;-42
2021/05/17 05:08:30;;;;;;;;;;;;;;;16.13;81.13;98252.19;3458156;28;19929;-42
2021/05/17 05:10:11;;;;;;;;;;;;;;;16.16;81.24;98241.63;3456591;28;19929;-42
2021/05/17 05:11:53;;;;;;;;;;;;;;;16.21;82.01;98239.69;3457648;28;20422;-42
2021/05/17 05:13:34;;;;;;;;;;;;;;;16.26;82.37;98236.94;3455674;28;19976;-42
2021/05/17 05:15:16;;;;;;;;;;;;;;;16.31;81.92;98235.03;3449242;28;20395;-42
2021/05/17 05:16:57;;;;;;;;;;;;;;;16.34;80.89;98235.78;3457783;28;19929;-46
2021/05/17 05:18:38;;;;;;;;;;;;;;;16.39;80.81;98225.19;3457214;28;20434;-47
2021/05/17 05:20:20;;;;;;;;;;;;;;;16.44;80.81;98222.38;3457066;28;19991;-46
2021/05/17 05:22:01;;;;;;;;;;;;;;;16.48;80.65;98224.88;3456774;28;20292;-49
2021/05/17 05:23:45;;;;;;;;;;;;;;;16.49;81.09;98218.69;3456234;28;20184;-45
2021/05/17 05:25:29;;;;;;;;;;;;;;;16.52;80.52;98223.84;3456967;28;19960;-46
2021/05/17 05:27:17;;;;;;;;;;;;;;;16.55;80.51;98218.50;3457196;28;19936;-47
2021/05/17 05:29:07;;;;;;;;;;;;;;;16.59;81.02;98207.94;3457210;28;20323;-42
2021/05/17 05:30:53;;;;;;;;;;;;;;;16.62;80.63;98200.84;3455152;28;20382;-46
2021/05/17 05:32:37;;;;;;;;;;;;;;;16.65;80.02;98202.47;3457779;28;19988;-42
2021/05/17 05:34:18;;;;;;;;;;;;;;;16.68;79.96;98198.00;3455857;28;19936;-42
2021/05/17 05:35:59;;;;;;;;;;;;;;;16.70;79.49;98196.16;3455780;28;19973;-46
2021/05/17 05:37:41;;;;;;;;;;;;;;;16.73;80.18;98196.06;3456921;28;19952;-47
2021/05/17 05:39:22;;;;;;;;;;;;;;;16.77;80.46;98191.59;3457082;28;20023;-47
2021/05/17 05:41:03;;;;;;;;;;;;;;;16.82;80.03;98194.91;3456539;28;19930;-42
2021/05/17 05:42:44;;;;;;;;;;;;;;;16.88;79.89;98191.22;3456133;28;19929;-43
2021/05/17 05:44:25;;;;;;;;;;;;;;;16.90;79.17;98179.81;3456021;28;20315;-42
2021/05/17 05:46:07;;;;;;;;;;;;;;;16.94;78.99;98180.53;3456669;28;19933;-42
2021/05/17 05:47:48;;;;;;;;;;;;;;;16.90;77.04;98176.31;3457196;28;19980;-42
2021/05/17 05:49:29;;;;;;;;;;;;;;;16.89;78.04;98177.22;3457009;28;19929;-43
2021/05/17 05:51:11;;;;;;;;;;;;;;;16.89;77.83;98175.47;3455587;28;20370;-43
2021/05/17 05:52:52;;;;;;;;;;;;;;;16.88;77.37;98170.28;3456587;28;19936;-43
2021/05/17 05:54:33;;;;;;;;;;;;;;;16.88;78.04;98162.41;3457500;28;19929;-42
2021/05/17 05:56:15;;;;;;;;;;;;;;;16.88;77.90;98165.03;3455995;28;19977;-42
2021/05/17 05:57:57;;;;;;;;;;;;;;;16.87;77.59;98161.56;3456375;28;20421;-42
2021/05/17 05:59:38;;;;;;;;;;;;;;;16.87;77.41;98163.34;3456303;28;19929;-42
2021/05/17 06:01:20;;;;;;;;;;;;;;;16.86;76.98;98156.38;3457860;28;19936;-42
2021/05/17 06:03:01;;;;;;;;;;;;;;;16.84;76.95;98145.97;3457317;28;19929;-46
2021/05/17 06:04:42;;;;;;;;;;;;;;;16.83;76.81;98156.47;3456403;28;19930;-48
2021/05/17 06:06:23;;;;;;;;;;;;;;;16.82;77.49;98152.16;3455769;28;20449;-47
2021/05/17 06:08:04;;;;;;;;;;;;;;;16.81;77.70;98147.84;3457008;28;19976;-46
2021/05/17 06:09:46;;;;;;;;;;;;;;;16.79;77.91;98137.41;3456379;28;20000;-47
2021/05/17 06:11:27;;;;;;;;;;;;;;;16.78;77.99;98135.72;3455364;28;20272;-47
2021/05/17 06:13:09;;;;;;;;;;;;;;;16.77;77.91;98141.00;3455022;28;20357;-46
2021/05/17 06:14:57;;;;;;;;;;;;;;;16.73;78.09;98129.75;3455878;28;19933;-42
2021/05/17 06:16:39;;;;;;;;;;;;;;;16.70;77.98;98122.00;3456347;28;19929;-47
2021/05/17 06:18:20;;;;;;;;;;;;;;;16.73;78.33;98119.28;3456079;28;19929;-47
2021/05/17 06:20:02;;;;;;;;;;;;;;;16.77;78.50;98120.91;3457235;28;19929;-42
2021/05/17 06:21:44;;;;;;;;;;;;;;;16.79;77.88;98113.00;3456541;28;19991;-48
2021/05/17 06:23:26;;;;;;;;;;;;;;;16.82;77.72;98108.50;3455340;28;20359;-42
2021/05/17 06:25:08;;;;;;;;;;;;;;;16.84;77.79;98098.81;3456662;28;20019;-42
2021/05/17 06:26:50;;;;;;;;;;;;;;;16.87;78.35;98088.22;3455327;28;19934;-42
2021/05/17 06:28:32;;;;;;;;;;;;;;;16.91;78.69;98086.34;3456341;28;19930;-47
2021/05/17 06:30:13;;;;;;;;;;;;;;;16.96;78.36;98081.78;3456143;28;20019;-45
2021/05/17 06:31:55;;;;;;;;;;;;;;;16.99;77.87;98072.94;3457122;28;19933;-41
2021/05/17 06:33:36;;;;;;;;;;;;;;;17.07;77.85;98076.97;3456365;28;20426;-41
2021/05/17 06:35:24;;;;;;;;;;;;;;;17.12;76.91;98074.19;3455679;28;19964;-47
2021/05/17 06:37:05;;;;;;;;;;;;;;;17.18;76.68;98076.56;3456353;28;19929;-47
2021/05/17 06:38:50;;;;;;;;;;;;;;;17.25;77.10;98085.06;3456822;28;19929;-42
2021/05/17 06:40:31;;;;;;;;;;;;;;;17.34;77.15;98094.31;3456415;28;19936;-42
2021/05/17 06:42:13;;;;;;;;;;;;;;;17.41;77.28;98116.75;3455511;28;20390;-42
2021/05/17 06:43:55;;;;;;;;;;;;;;;17.45;76.56;98119.22;3455112;28;19933;-42
2021/05/17 06:45:36;;;;;;;;;;;;;;;17.46;76.79;98122.69;3456671;28;19929;-47
2021/05/17 06:47:19;;;;;;;;;;;;;;;17.46;76.91;98126.16;3456124;28;19930;-46
2021/05/17 06:49:00;;;;;;;;;;;;;;;17.47;76.73;98129.66;3456275;28;19933;-46
2021/05/17 06:50:42;;;;;;;;;;;;;;;17.48;76.32;98137.44;3456348;28;19933;-47
2021/05/17 06:52:25;;;;;;;;;;;;;;;17.51;77.37;98138.25;3456475;28;19940;-46
2021/05/17 06:54:08;;;;;;;;;;;;;;;17.49;76.25;98138.31;3455917;28;19933;-46
2021/05/17 06:55:59;;;;;;;;;;;;;;;17.46;77.16;98136.63;3454994;28;19929;-46
2021/05/17 06:57:49;;;;;;;;;;;;;;;17.47;76.97;98140.13;3442791;28;19929;-47
2021/05/17 06:59:32;;;;;;;;;;;;;;;17.45;77.00;98132.31;3454536;28;19979;-42
2021/05/17 07:01:14;;;;;;;;;;;;;;;17.44;76.08;98135.84;3455825;28;19980;-46
2021/05/17 07:02:57;;;;;;;;;;;;;;;17.46;76.66;98141.88;3454930;28;20296;-46
2021/05/17 07:04:38;;;;;;;;;;;;;;;17.48;76.51;98147.94;3455144;28;19929;-46
2021/05/17 07:06:23;;;;;;;;;;;;;;;17.47;76.19;98153.25;3455816;28;20434;-49
2021/05/17 07:12:08;;;;;;;;;;;;;;;17.56;76.35;98155.50;3455457;28;19930;-42
2021/05/17 07:13:50;;;;;;;;;;;;;;;17.63;76.32;98145.63;3453333;28;19929;-44
2021/05/17 07:15:31;;;;;;;;;;;;;;;17.68;76.39;98138.44;3455940;28;19937;-43
2021/05/17 07:17:12;;;;;;;;;;;;;;;17.74;76.75;98132.94;3457024;28;19929;-42
2021/05/17 07:18:54;;;;;;;;;;;;;;;17.82;76.38;98130.00;3455498;28;20346;-45
2021/05/17 07:23:37;;;;;;;;;;;;;;;17.88;76.72;98131.56;3455572;28;19983;-49
2021/05/17 07:24:36;;;;;;;;;;;;;;;17.91;75.89;98137.53;3442543;28;20314;-47
2021/05/17 07:26:18;;;;;;;;;;;;;;;17.92;75.53;98138.38;3453021;28;20426;-47
2021/05/17 07:27:59;;;;;;;;;;;;;;;17.93;74.86;98134.84;3456787;28;20530;-46
2021/05/17 07:29:40;;;;;;;;;;;;;;;17.98;75.70;98125.88;3455186;28;19929;-47
2021/05/17 07:31:22;;;;;;;;;;;;;;;18.04;74.91;98133.47;3454929;28;19930;-47
2021/05/17 07:33:03;;;;;;;;;;;;;;;18.10;74.92;98126.25;3455730;28;19984;-43
2021/05/17 07:34:45;;;;;;;;;;;;;;;18.19;75.21;98118.88;3456275;28;19977;-47
2021/05/17 07:36:26;;;;;;;;;;;;;;;18.40;75.29;98119.72;3456043;28;19933;-45
2021/05/17 07:38:08;;;;;;;;;;;;;;;18.64;74.46;98119.56;3454691;28;19929;-44
2021/05/17 07:39:49;;;;;;;;;;;;;;;18.89;73.71;98113.25;3455835;28;19929;-48
2021/05/17 07:41:30;;;;;;;;;;;;;;;19.09;71.82;98120.22;3455707;28;19936;-46
2021/05/17 07:43:11;;;;;;;;;;;;;;;19.18;71.93;98128.53;3455941;28;20030;-45
2021/05/17 07:44:59;;;;;;;;;;;;;;;19.27;72.05;98136.94;3455535;28;19991;-45
2021/05/17 07:46:41;;;;;;;;;;;;;;;19.42;71.89;98136.19;3454575;28;19980;-45
2021/05/17 07:48:22;;;;;;;;;;;;;;;19.63;71.27;98136.13;3455851;28;19957;-45
2021/05/17 07:50:04;;;;;;;;;;;;;;;19.91;70.41;98140.94;3454369;28;20280;-45
2021/05/17 07:51:46;;;;;;;;;;;;;;;20.17;68.63;98157.22;3456228;28;19930;-43
2021/05/17 07:53:27;;;;;;;;;;;;;;;20.26;67.38;98154.13;3454837;28;19929;-45
2021/05/17 07:55:09;;;;;;;;;;;;;;;20.36;67.57;98165.91;3454514;28;19992;-45
2021/05/17 07:56:50;;;;;;;;;;;;;;;20.28;66.73;98154.91;3455228;28;20470;-46
2021/05/17 07:58:31;;;;;;;;;;;;;;;20.19;67.10;98161.47;3453473;28;19937;-47
2021/05/17 08:00:13;;;;;;;;;;;;;;;20.10;66.15;98157.53;3455564;28;19960;-47
2021/05/17 08:01:55;;;;;;;;;;;;;;;20.06;66.42;98155.09;3454640;28;20382;-50
2021/05/17 08:03:36;;;;;;;;;;;;;;;20.04;67.02;98151.69;3456101;28;19937;-47
2021/05/17 08:05:18;;;;;;;;;;;;;;;20.06;66.88;98148.09;3455137;28;19952;-52
2021/05/17 08:06:59;;;;;;;;;;;;;;;20.10;67.41;98147.00;3454741;28;19934;-48
2021/05/17 08:08:41;;;;;;;;;;;;;;;20.04;65.26;98157.84;3455393;28;19984;-48
2021/05/17 08:10:22;;;;;;;;;;;;;;;19.90;66.35;98158.50;3454558;28;19933;-50
2021/05/17 08:12:04;;;;;;;;;;;;;;;19.83;67.15;98158.88;3455336;28;19930;-48
2021/05/17 08:13:45;;;;;;;;;;;;;;;19.73;67.76;98153.19;3454544;28;19975;-48
2021/05/17 08:15:34;;;;;;;;;;;;;;;19.74;68.21;98168.03;3457192;28;20337;-47
2021/05/17 08:17:15;;;;;;;;;;;;;;;19.75;67.62;98170.59;3455264;28;19985;-47
2021/05/17 08:18:57;;;;;;;;;;;;;;;19.72;67.10;98164.63;3455107;28;19929;-47
2021/05/17 08:20:39;;;;;;;;;;;;;;;19.73;67.33;98169.81;3455839;28;19979;-47
2021/05/17 08:22:20;;;;;;;;;;;;;;;19.66;66.04;98163.13;3454029;28;20354;-50
2021/05/17 08:24:01;;;;;;;;;;;;;;;19.58;67.58;98165.25;3455834;28;19929;-46
2021/05/17 08:25:43;;;;;;;;;;;;;;;19.58;68.46;98173.16;3455584;28;20294;-46
2021/05/17 08:27:24;;;;;;;;;;;;;;;19.68;68.68;98176.22;3455707;28;20399;-45
2021/05/17 08:29:06;;;;;;;;;;;;;;;19.66;66.86;98176.28;3454116;28;19937;-48
2021/05/17 08:30:54;;;;;;;;;;;;;;;19.57;67.20;98177.56;3454465;28;20306;-47
2021/05/17 08:32:35;;;;;;;;;;;;;;;19.51;68.40;98179.63;3441759;28;19934;-47
2021/05/17 08:34:16;;;;;;;;;;;;;;;19.44;67.90;98184.34;3450516;28;19930;-48
2021/05/17 08:35:58;;;;;;;;;;;;;;;19.43;68.20;98184.41;3455469;28;20428;-46
2021/05/17 08:37:39;;;;;;;;;;;;;;;19.44;68.06;98196.63;3454099;28;19929;-47
2021/05/17 08:39:20;;;;;;;;;;;;;;;19.47;68.87;98199.13;3454359;28;19929;-47
2021/05/17 08:41:02;;;;;;;;;;;;;;;19.48;67.68;98195.59;3454784;28;20417;-48
2021/05/17 08:42:43;;;;;;;;;;;;;;;19.45;68.63;98199.19;3455436;28;19977;-50
2021/05/17 08:44:25;;;;;;;;;;;;;;;19.45;68.56;98195.72;3455315;28;20495;-47
2021/05/17 08:46:08;;;;;;;;;;;;;;;19.54;69.48;98197.91;3453767;28;19980;-48
2021/05/17 08:47:51;;;;;;;;;;;;;;;19.67;68.60;98200.81;3454552;28;19976;-46
2021/05/17 08:49:32;;;;;;;;;;;;;;;19.75;67.95;98204.78;3454762;28;20031;-47
2021/05/17 08:51:15;;;;;;;;;;;;;;;19.77;67.44;98207.34;3455732;28;20422;-47
2021/05/17 08:52:57;;;;;;;;;;;;;;;19.71;67.22;98211.13;3455230;28;20436;-47
2021/05/17 08:54:38;;;;;;;;;;;;;;;19.62;67.61;98203.69;3455405;28;20374;-46
2021/05/17 08:56:19;;;;;;;;;;;;;;;19.54;67.56;98205.81;3454895;28;20279;-45
2021/05/17 08:58:00;;;;;;;;;;;;;;;19.50;67.55;98197.19;3453995;28;19937;-46
2021/05/17 08:59:41;;;;;;;;;;;;;;;19.48;68.01;98217.47;3454456;28;19972;-45
2021/05/17 09:01:23;;;;;;;;;;;;;;;19.49;68.27;98213.06;3454454;28;19929;-48
2021/05/17 09:03:04;;;;;;;;;;;;;;;19.48;68.57;98214.00;3453924;28;20302;-46
2021/05/17 09:05:02;;;;;;;;;;;;;;;19.43;67.77;98208.94;3455045;28;19933;-46